Time;durP1;ratioP1;P1;durP2;ratioP2;P2;SDS_P1;SDS_P2;PMS_P1;PMS_P2;Temp;Humidity;BMP_temperature;BMP_pressure;BME280_temperature;BME280_humidity;BME280_pressure;Samples;Min_cycle;Max_cycle;Signal;HPM_P1;HPM_P2
2020/12/10 00:00:31;;;;;;;0.17;0.00;;;7.20;85.70;;;;;;4167972;27;20042;-89
2020/12/10 00:03:18;;;;;;;0.10;0.00;;;7.20;85.70;;;;;;4172065;27;20066;-89
2020/12/10 00:06:25;;;;;;;0.00;0.00;;;7.30;85.90;;;;;;4150257;34;20062;-88
2020/12/10 00:08:57;;;;;;;0.03;0.00;;;7.20;85.90;;;;;;4131108;34;20070;-88
2020/12/10 00:11:29;;;;;;;0.20;0.10;;;7.20;85.90;;;;;;4135830;34;20073;-89
2020/12/10 00:13:58;;;;;;;0.00;0.00;;;7.20;86.10;;;;;;4146601;27;20078;-89
2020/12/10 00:16:25;;;;;;;0.00;0.00;;;7.20;86.20;;;;;;4133971;27;20074;-90
2020/12/10 00:18:51;;;;;;;0.00;0.00;;;7.20;86.20;;;;;;4113978;35;20082;-88
2020/12/10 00:21:42;;;;;;;0.00;0.00;;;7.20;86.30;;;;;;4158556;27;20128;-89
2020/12/10 00:24:14;;;;;;;0.22;0.22;;;7.20;86.50;;;;;;4143995;27;20068;-87
2020/12/10 00:26:41;;;;;;;0.25;0.13;;;7.30;86.60;;;;;;4114356;35;20099;-87
2020/12/10 00:29:11;;;;;;;0.00;0.00;;;7.30;86.60;;;;;;4139735;27;20067;-87
2020/12/10 00:31:39;;;;;;;2.50;0.30;;;7.30;86.60;;;;;;4112934;27;20396;-89
2020/12/10 00:34:06;;;;;;;0.10;0.00;;;7.30;86.70;;;;;;4143365;27;20470;-88
2020/12/10 00:36:32;;;;;;;0.00;0.00;;;7.30;86.80;;;;;;4113416;35;20067;-87
2020/12/10 00:38:59;;;;;;;0.00;0.00;;;7.30;86.80;;;;;;4129718;27;20067;-88
2020/12/10 00:41:25;;;;;;;2.00;0.37;;;7.30;86.80;;;;;;4112978;27;20067;-89
2020/12/10 00:43:52;;;;;;;0.00;0.00;;;7.30;86.80;;;;;;4138111;27;20079;-90
2020/12/10 00:46:18;;;;;;;0.00;0.00;;;7.30;86.80;;;;;;4109940;27;20082;-86
2020/12/10 00:48:44;;;;;;;0.10;0.10;;;7.30;87.00;;;;;;4123264;35;20591;-87
2020/12/10 00:51:11;;;;;;;0.10;0.00;;;7.30;87.00;;;;;;4135988;34;20052;-90
2020/12/10 00:53:39;;;;;;;0.00;0.00;;;7.30;87.00;;;;;;4147688;27;20071;-88
2020/12/10 00:56:06;;;;;;;0.00;0.00;;;7.30;87.10;;;;;;4130415;34;20051;-87
2020/12/10 00:58:32;;;;;;;0.57;0.10;;;7.30;87.30;;;;;;4157211;27;20078;-88
2020/12/10 01:01:01;;;;;;;0.00;0.00;;;7.30;87.40;;;;;;4120774;27;20086;-88
2020/12/10 01:03:34;;;;;;;0.43;0.33;;;7.30;87.50;;;;;;4198534;26;20078;-88
2020/12/10 01:06:26;;;;;;;0.00;0.00;;;7.30;87.70;;;;;;4147424;34;20082;-88
2020/12/10 01:08:54;;;;;;;;;;;7.30;87.90;;;;;;4141885;27;20055;-87
2020/12/10 01:11:28;;;;;;;0.20;0.10;;;7.30;88.00;;;;;;4141073;27;19983;-88
2020/12/10 01:13:55;;;;;;;0.10;0.00;;;7.20;88.00;;;;;;4132238;27;20077;-88
2020/12/10 01:16:24;;;;;;;0.00;0.00;;;7.20;88.20;;;;;;4126790;27;20393;-87
2020/12/10 01:18:54;;;;;;;2.10;0.90;;;7.20;88.20;;;;;;4138624;27;20067;-88
2020/12/10 01:21:35;;;;;;;2.65;0.10;;;7.30;88.20;;;;;;4138388;27;20093;-88
2020/12/10 01:24:06;;;;;;;;;;;7.30;88.20;;;;;;4105315;34;20057;-88
2020/12/10 01:26:35;;;;;;;0.00;0.00;;;7.30;88.20;;;;;;4136486;27;19982;-88
2020/12/10 01:29:22;;;;;;;0.00;0.00;;;7.30;88.30;;;;;;4152592;27;20058;-87
2020/12/10 01:31:54;;;;;;;0.00;0.00;;;7.30;88.50;;;;;;4172507;27;20081;-87
2020/12/10 01:34:22;;;;;;;0.00;0.00;;;7.30;88.50;;;;;;4156297;27;20051;-87
2020/12/10 01:36:53;;;;;;;0.00;0.00;;;7.30;88.70;;;;;;4142682;27;20059;-89
2020/12/10 01:39:38;;;;;;;2.08;1.45;;;7.20;88.60;;;;;;4156740;26;20090;-88
2020/12/10 01:42:06;;;;;;;0.00;0.00;;;7.20;88.70;;;;;;4124335;34;20063;-89
2020/12/10 01:44:32;;;;;;;7.03;0.10;;;7.20;89.00;;;;;;4138626;34;20077;-88
2020/12/10 01:46:58;;;;;;;0.00;0.00;;;7.20;89.20;;;;;;4139182;27;20086;-87
2020/12/10 01:49:25;;;;;;;0.00;0.00;;;7.20;89.30;;;;;;4141449;27;20102;-87
2020/12/10 01:51:51;;;;;;;0.00;0.00;;;7.20;89.40;;;;;;4135569;27;20059;-88
2020/12/10 01:54:18;;;;;;;0.20;0.20;;;7.20;89.40;;;;;;4175871;27;20071;-88
2020/12/10 01:56:44;;;;;;;0.03;0.00;;;7.20;89.50;;;;;;4111194;35;20071;-88
2020/12/10 01:59:12;;;;;;;1.57;0.13;;;7.20;89.60;;;;;;4110995;35;20059;-88
2020/12/10 02:01:40;;;;;;;0.00;0.00;;;7.20;89.70;;;;;;4121162;27;20055;-87
2020/12/10 02:04:24;;;;;;;0.00;0.00;;;7.20;89.80;;;;;;4111074;35;20083;-88
2020/12/10 02:06:51;;;;;;;0.10;0.10;;;7.20;89.90;;;;;;4118093;35;20083;-87
2020/12/10 02:09:18;;;;;;;0.00;0.00;;;7.10;90.00;;;;;;4110473;27;20067;-88
2020/12/10 02:11:44;;;;;;;0.40;0.23;;;7.10;90.00;;;;;;4110119;27;20105;-87
2020/12/10 02:14:11;;;;;;;0.00;0.00;;;7.10;90.00;;;;;;4117024;27;20070;-87
2020/12/10 02:16:37;;;;;;;0.00;0.00;;;7.20;90.00;;;;;;4110626;35;20089;-88
2020/12/10 02:19:04;;;;;;;0.00;0.00;;;7.20;90.00;;;;;;4105252;27;20075;-89
2020/12/10 02:21:32;;;;;;;0.00;0.00;;;7.20;89.90;;;;;;4115037;27;20395;-88
2020/12/10 02:23:58;;;;;;;0.00;0.00;;;7.20;89.90;;;;;;4169962;27;20142;-89
2020/12/10 02:26:30;;;;;;;0.57;0.10;;;7.20;89.90;;;;;;4100830;35;20086;-87
2020/12/10 02:29:01;;;;;;;0.07;0.00;;;7.20;90.00;;;;;;4115172;35;20470;-88
2020/12/10 02:31:33;;;;;;;0.75;0.60;;;7.20;90.00;;;;;;4125042;27;20082;-88
2020/12/10 02:34:05;;;;;;;0.00;0.00;;;7.30;90.00;;;;;;4133618;34;20078;-88
2020/12/10 02:36:33;;;;;;;0.27;0.00;;;7.20;89.90;;;;;;4145508;27;20075;-88
2020/12/10 02:39:20;;;;;;;0.30;0.10;;;7.20;89.90;;;;;;4172140;27;20063;-90
2020/12/10 02:41:47;;;;;;;0.33;0.10;;;7.30;90.00;;;;;;4175533;27;20059;-88
2020/12/10 02:44:14;;;;;;;0.00;0.00;;;7.30;90.00;;;;;;4116829;27;20063;-88
2020/12/10 02:46:42;;;;;;;0.00;0.00;;;7.30;90.00;;;;;;4119015;27;20047;-88
2020/12/10 02:49:09;;;;;;;0.00;0.00;;;7.30;90.00;;;;;;4130716;27;20111;-88
2020/12/10 02:51:41;;;;;;;0.00;0.00;;;7.30;90.00;;;;;;4129463;35;20444;-89
2020/12/10 02:54:09;;;;;;;0.00;0.00;;;7.30;90.00;;;;;;4129668;35;20067;-89
2020/12/10 02:56:35;;;;;;;0.00;0.00;;;7.30;90.00;;;;;;4129580;34;20078;-87
2020/12/10 02:59:02;;;;;;;0.00;0.00;;;7.30;90.00;;;;;;4132688;27;20473;-90
2020/12/10 03:04:17;;;;;;;0.10;0.00;;;7.40;90.00;;;;;;4100784;35;20066;-87
2020/12/10 03:06:45;;;;;;;0.17;0.10;;;7.40;90.00;;;;;;4138104;27;20055;-88
2020/12/10 03:09:21;;;;;;;0.00;0.00;;;7.40;90.00;;;;;;4158211;27;20339;-86
2020/12/10 03:11:47;;;;;;;0.15;0.10;;;7.40;90.00;;;;;;4125420;34;20055;-88
2020/12/10 03:14:14;;;;;;;1.40;0.30;;;7.40;90.00;;;;;;4151353;27;20091;-87
2020/12/10 03:16:40;;;;;;;0.93;0.03;;;7.40;90.00;;;;;;4140411;27;20074;-88
2020/12/10 03:19:07;;;;;;;0.63;0.30;;;7.50;90.00;;;;;;4139077;34;20051;-88
2020/12/10 03:21:33;;;;;;;1.80;0.20;;;7.50;90.00;;;;;;4146886;27;20073;-88
2020/12/10 03:23:59;;;;;;;0.40;0.10;;;7.50;89.90;;;;;;4150452;34;20086;-88
2020/12/10 03:26:26;;;;;;;0.00;0.00;;;7.50;89.90;;;;;;4137673;34;20101;-86
2020/12/10 03:28:52;;;;;;;0.00;0.00;;;7.50;89.80;;;;;;4140083;34;20127;-87
2020/12/10 03:31:18;;;;;;;0.88;0.30;;;7.60;89.90;;;;;;4150020;27;20078;-87
2020/12/10 03:33:46;;;;;;;0.00;0.00;;;7.60;89.90;;;;;;4139007;34;20079;-89
2020/12/10 03:36:13;;;;;;;2.55;0.30;;;7.60;89.90;;;;;;4135599;34;20074;-88
2020/12/10 03:38:39;;;;;;;0.40;0.10;;;7.60;89.80;;;;;;4130369;27;20074;-89
2020/12/10 03:41:06;;;;;;;0.20;0.10;;;7.60;89.70;;;;;;4114116;35;20057;-88
2020/12/10 03:43:32;;;;;;;0.10;0.00;;;7.70;89.70;;;;;;4100926;35;20083;-88
2020/12/10 03:45:59;;;;;;;0.17;0.00;;;7.60;89.60;;;;;;4090702;28;20063;-88
2020/12/10 03:48:25;;;;;;;0.85;0.22;;;7.70;89.60;;;;;;4095411;27;20086;-89
2020/12/10 03:50:52;;;;;;;1.40;0.30;;;7.70;89.60;;;;;;4126033;27;20083;-88
2020/12/10 03:53:18;;;;;;;1.27;0.57;;;7.70;89.50;;;;;;4119392;27;20129;-88
2020/12/10 03:55:44;;;;;;;0.10;0.00;;;7.80;89.50;;;;;;4092886;35;20102;-88
2020/12/10 03:58:11;;;;;;;0.00;0.00;;;7.80;89.40;;;;;;4104407;35;20056;-87
2020/12/10 04:00:37;;;;;;;0.00;0.00;;;7.80;89.40;;;;;;4090712;28;20059;-89
2020/12/10 04:03:03;;;;;;;0.30;0.05;;;7.80;89.30;;;;;;4105725;27;20072;-87
2020/12/10 04:05:30;;;;;;;0.00;0.00;;;7.90;89.30;;;;;;4125902;27;20075;-89
2020/12/10 04:07:56;;;;;;;0.67;0.10;;;7.90;89.20;;;;;;4091135;35;20078;-86
2020/12/10 04:10:23;;;;;;;3.10;0.73;;;8.00;89.20;;;;;;4110294;27;20071;-89
2020/12/10 04:12:49;;;;;;;0.00;0.00;;;8.00;89.00;;;;;;4089991;35;20500;-89
2020/12/10 04:15:15;;;;;;;0.00;0.00;;;8.00;88.90;;;;;;4103499;27;20101;-88
2020/12/10 04:17:42;;;;;;;0.00;0.00;;;8.10;89.00;;;;;;4094929;35;20118;-89
2020/12/10 04:20:09;;;;;;;0.00;0.00;;;8.10;89.00;;;;;;4127780;27;20039;-89
2020/12/10 04:22:35;;;;;;;0.00;0.00;;;8.10;89.50;;;;;;4137746;27;20079;-89
2020/12/10 04:25:02;;;;;;;0.00;0.00;;;8.10;88.90;;;;;;4152644;27;20467;-90
2020/12/10 04:27:28;;;;;;;0.00;0.00;;;8.20;88.90;;;;;;4127243;27;20066;-88
2020/12/10 04:29:54;;;;;;;0.00;0.00;;;8.20;88.80;;;;;;4117147;35;20112;-87
2020/12/10 04:32:22;;;;;;;0.10;0.00;;;8.20;88.80;;;;;;4134556;27;20063;-89
2020/12/10 04:34:48;;;;;;;0.00;0.00;;;8.30;88.70;;;;;;4115482;27;20458;-88
2020/12/10 04:37:15;;;;;;;0.00;0.00;;;8.30;88.60;;;;;;4139089;27;20763;-88
2020/12/10 04:39:41;;;;;;;0.00;0.00;;;8.30;88.60;;;;;;4114844;35;20067;-89
2020/12/10 04:42:09;;;;;;;0.00;0.00;;;8.40;88.60;;;;;;4126697;35;20059;-88
2020/12/10 04:44:36;;;;;;;0.00;0.00;;;8.40;88.60;;;;;;4129045;35;20091;-87
2020/12/10 04:47:03;;;;;;;0.00;0.00;;;8.40;88.50;;;;;;4154483;27;20036;-87
2020/12/10 04:49:29;;;;;;;0.00;0.00;;;8.40;88.60;;;;;;4121250;27;20067;-88
2020/12/10 04:51:56;;;;;;;0.00;0.00;;;8.40;88.60;;;;;;4126379;35;20091;-87
2020/12/10 04:54:22;;;;;;;0.20;0.00;;;8.50;88.70;;;;;;4130199;35;20062;-89
2020/12/10 04:56:49;;;;;;;0.00;0.00;;;8.50;88.50;;;;;;4129283;35;20445;-90
2020/12/10 04:59:15;;;;;;;0.00;0.00;;;8.50;88.40;;;;;;4181549;27;20072;-90
2020/12/10 05:01:43;;;;;;;0.00;0.00;;;8.50;88.40;;;;;;4179518;27;20070;-89
2020/12/10 05:04:09;;;;;;;0.00;0.00;;;8.50;88.40;;;;;;4129006;27;20074;-88
2020/12/10 05:06:40;;;;;;;0.00;0.00;;;8.60;88.40;;;;;;4103957;35;20090;-88
2020/12/10 05:09:14;;;;;;;0.00;0.00;;;8.60;88.30;;;;;;4221242;27;20108;-88
2020/12/10 05:11:41;;;;;;;0.00;0.00;;;8.60;88.30;;;;;;4160241;27;20181;-89
2020/12/10 05:14:11;;;;;;;0.03;0.00;;;8.60;88.20;;;;;;4108713;27;20044;-90
2020/12/10 05:16:38;;;;;;;0.00;0.00;;;8.70;88.20;;;;;;4078672;35;20051;-88
2020/12/10 05:19:19;;;;;;;0.00;0.00;;;8.70;88.20;;;;;;4089216;35;20064;-89
2020/12/10 05:22:05;;;;;;;0.00;0.00;;;8.80;88.10;;;;;;4090425;27;20518;-88
2020/12/10 05:24:33;;;;;;;0.10;0.00;;;8.80;88.10;;;;;;4171954;27;20198;-88
2020/12/10 05:27:23;;;;;;;0.00;0.00;;;8.90;88.00;;;;;;4089604;35;20056;-90
2020/12/10 05:29:50;;;;;;;0.00;0.00;;;8.90;87.90;;;;;;4084427;27;20080;-88
2020/12/10 05:32:42;;;;;;;9.65;0.20;;;9.00;88.70;;;;;;4057490;35;20040;-89
2020/12/10 05:35:26;;;;;;;0.00;0.00;;;9.00;87.90;;;;;;4068242;35;20114;-89
2020/12/10 05:38:04;;;;;;;0.00;0.00;;;9.00;87.80;;;;;;4108719;27;20044;-89
2020/12/10 05:40:34;;;;;;;0.35;0.00;;;9.10;87.90;;;;;;4080279;35;20064;-89
2020/12/10 05:43:01;;;;;;;0.00;0.00;;;9.10;87.90;;;;;;4134928;27;20280;-87
2020/12/10 05:48:04;;;;;;;0.10;0.00;;;9.00;87.90;;;;;;4131889;34;20055;-89
2020/12/10 05:51:19;;;;;;;0.00;0.00;;;9.00;88.00;;;;;;4111112;34;20118;31
2020/12/10 05:54:46;;;;;;;0.20;0.00;;;9.10;88.10;;;;;;4160535;27;20115;-88
2020/12/10 05:57:27;;;;;;;0.10;0.00;;;9.10;88.20;;;;;;4101245;27;20518;-90
2020/12/10 05:59:53;;;;;;;0.00;0.00;;;9.10;88.10;;;;;;4076045;27;20072;-90
2020/12/10 06:02:39;;;;;;;0.40;0.13;;;9.10;88.20;;;;;;4063264;28;20060;-91
2020/12/10 06:15:32;;;;;;;0.00;0.00;;;9.10;88.20;;;;;;4151399;27;20481;-91
2020/12/10 06:18:09;;;;;;;0.08;0.00;;;9.10;88.30;;;;;;4111873;34;20043;-89
2020/12/10 06:20:37;;;;;;;0.00;0.00;;;9.10;88.30;;;;;;4146199;27;20507;-90
2020/12/10 06:23:29;;;;;;;0.00;0.00;;;9.10;88.30;;;;;;4109564;27;20053;-90
2020/12/10 06:26:05;;;;;;;2.53;0.13;;;9.20;88.30;;;;;;4096606;27;20053;-88
2020/12/10 06:48:03;;;;;;;3.15;0.10;;;8.90;88.90;;;;;;4099265;27;20093;31
2020/12/10 07:22:02;;;;;;;0.00;0.00;;;8.80;89.10;;;;;;4101174;27;20118;-90
2020/12/10 07:51:34;;;;;;;0.15;0.05;;;8.60;89.40;;;;;;4101844;27;20108;-89
2020/12/10 07:56:49;;;;;;;0.00;0.00;;;8.50;89.40;;;;;;4111622;27;20448;-88
2020/12/10 07:59:25;;;;;;;0.00;0.00;;;8.50;89.50;;;;;;4128994;34;20089;-90
2020/12/10 08:31:19;;;;;;;0.00;0.00;;;8.30;89.70;;;;;;4139796;27;20047;-92
2020/12/10 08:33:46;;;;;;;0.73;0.15;;;8.40;89.90;;;;;;4131302;34;20074;-91
2020/12/10 08:36:28;;;;;;;0.10;0.00;;;8.30;89.90;;;;;;4129931;34;20081;-89
2020/12/10 08:38:54;;;;;;;0.00;0.00;;;8.30;90.00;;;;;;4120218;34;20067;-90
2020/12/10 08:41:59;;;;;;;0.00;0.00;;;8.20;89.90;;;;;;4123388;27;20081;-88
2020/12/10 08:44:25;;;;;;;0.08;0.00;;;8.20;90.00;;;;;;4155554;27;20074;-89
2020/12/10 08:47:01;;;;;;;0.00;0.00;;;8.20;90.00;;;;;;4118886;27;20075;-90
2020/12/10 08:49:30;;;;;;;0.00;0.00;;;8.30;90.00;;;;;;4137689;34;20078;-88
2020/12/10 08:53:38;;;;;;;0.00;0.00;;;8.30;89.90;;;;;;4180872;27;20063;-88
2020/12/10 08:56:17;;;;;;;0.00;0.00;;;8.30;89.80;;;;;;4136471;34;20073;-88
2020/12/10 09:02:22;;;;;;;0.00;0.00;;;8.30;89.60;;;;;;4130584;27;20087;-90
2020/12/10 09:04:48;;;;;;;0.17;0.10;;;8.30;89.60;;;;;;4101900;27;20095;-90
2020/12/10 09:07:15;;;;;;;0.00;0.00;;;8.30;89.60;;;;;;4088163;35;20087;-90
2020/12/10 09:17:42;;;;;;;1.52;0.20;;;8.30;89.60;;;;;;4133573;27;20699;-88
2020/12/10 09:20:23;;;;;;;;;;;;;;;;;;;;;
2020/12/10 09:41:13;;;;;;;0.30;0.13;;;8.80;88.50;;;;;;4112103;27;20549;-91
2020/12/10 09:52:35;;;;;;;0.00;0.00;;;9.30;87.50;;;;;;4120706;35;20074;-88
2020/12/10 10:25:07;;;;;;;0.00;0.00;;;10.40;85.20;;;;;;4134009;27;20078;-90
2020/12/10 10:51:42;;;;;;;0.00;0.00;;;10.40;86.30;;;;;;4147875;34;20047;-88
2020/12/10 10:54:08;;;;;;;0.80;0.10;;;10.50;86.00;;;;;;4123841;34;20108;-89
2020/12/10 10:59:11;;;;;;;0.10;0.00;;;10.60;85.80;;;;;;4134862;27;20097;-88
2020/12/10 11:01:55;;;;;;;6.65;0.13;;;10.70;85.70;;;;;;4110962;27;20093;-92
2020/12/10 11:04:27;;;;;;;0.00;0.00;;;10.70;85.70;;;;;;4121830;34;20073;-90
2020/12/10 12:33:41;;;;;;;0.40;0.05;;;11.40;85.00;;;;;;4149365;34;20069;-89
2020/12/10 12:50:40;;;;;;;1.17;0.05;;;11.70;84.50;;;;;;4145595;34;20543;-89
2020/12/10 12:53:52;;;;;;;0.00;0.00;;;11.50;84.80;;;;;;4127331;35;20071;-88
2020/12/10 13:17:51;;;;;;;0.00;0.00;;;11.70;84.80;;;;;;4112135;27;20334;-87
2020/12/10 13:20:34;;;;;;;0.00;0.00;;;11.70;84.80;;;;;;4185172;27;20039;-88
2020/12/10 13:23:00;;;;;;;0.00;0.00;;;11.70;84.70;;;;;;4135674;34;20051;-87
2020/12/10 13:25:27;;;;;;;0.57;0.10;;;11.80;84.70;;;;;;4165881;27;20038;-89
2020/12/10 13:27:56;;;;;;;0.00;0.00;;;11.80;84.70;;;;;;4147006;27;20093;-89
2020/12/10 13:51:07;;;;;;;0.00;0.00;;;11.40;85.80;;;;;;4150092;27;20053;-87
2020/12/10 13:53:36;;;;;;;0.13;0.00;;;11.40;86.00;;;;;;4162188;27;20063;-87
2020/12/10 13:56:02;;;;;;;0.00;0.00;;;11.40;86.00;;;;;;4137242;27;20046;-88
2020/12/10 14:07:18;;;;;;;0.00;0.00;;;11.40;85.90;;;;;;4150619;27;20093;-89
2020/12/10 14:10:10;;;;;;;0.15;0.05;;;11.40;85.90;;;;;;4109584;34;20062;-89
2020/12/10 14:12:52;;;;;;;0.00;0.00;;;11.40;85.70;;;;;;4107232;27;20695;-90
2020/12/10 14:15:56;;;;;;;;;;;;;;;;;;;;;
2020/12/10 14:18:26;;;;;;;1.20;0.00;;;11.60;85.40;;;;;;4149392;27;20076;-89
2020/12/10 14:21:06;;;;;;;0.08;0.08;;;11.70;85.10;;;;;;4102196;27;20068;-89
2020/12/10 14:23:32;;;;;;;0.00;0.00;;;11.80;84.80;;;;;;4132869;27;20056;-89
2020/12/10 14:25:59;;;;;;;0.08;0.00;;;11.90;84.50;;;;;;4090953;35;20664;-89
2020/12/10 14:28:25;;;;;;;0.28;0.17;;;12.00;84.40;;;;;;4135737;27;20488;-88
2020/12/10 14:31:12;;;;;;;;;;;;;;;;;;;;;
2020/12/10 14:33:49;;;;;;;0.40;0.22;;;12.00;84.40;;;;;;4077979;35;20061;-89
2020/12/10 14:36:18;;;;;;;1.55;0.22;;;12.00;84.40;;;;;;4110019;27;20430;-90
2020/12/10 14:39:16;;;;;;;0.10;0.00;;;11.90;84.60;;;;;;4188615;27;20045;-90
2020/12/10 14:41:53;;;;;;;0.75;0.10;;;11.90;84.90;;;;;;4133341;34;20584;-88
2020/12/10 14:44:21;;;;;;;0.32;0.15;;;11.80;85.20;;;;;;4118269;34;20043;-88
2020/12/10 14:47:01;;;;;;;0.00;0.00;;;11.70;85.40;;;;;;4165077;27;20070;-89
2020/12/10 14:49:31;;;;;;;1.80;0.05;;;11.70;86.30;;;;;;4125204;34;20057;-88
2020/12/10 14:52:08;;;;;;;0.00;0.00;;;11.60;85.60;;;;;;4126363;27;20359;-89
2020/12/10 14:57:23;;;;;;;;;;;;;;;;;;;;;
2020/12/10 14:59:56;;;;;;;0.00;0.00;;;11.60;85.70;;;;;;4111846;34;20517;-90
2020/12/10 15:02:30;;;;;;;2.42;0.20;;;11.70;85.70;;;;;;4120417;34;20370;-89
2020/12/10 15:05:04;;;;;;;0.10;0.10;;;11.60;85.60;;;;;;4096165;34;20047;-89
2020/12/10 15:07:33;;;;;;;0.32;0.15;;;11.70;85.60;;;;;;4106755;34;20140;-87
2020/12/10 15:10:01;;;;;;;0.10;0.00;;;11.60;85.60;;;;;;4095871;34;20055;-90
2020/12/10 15:12:33;;;;;;;0.00;0.00;;;11.60;85.70;;;;;;4122450;27;20091;-90
2020/12/10 15:15:07;;;;;;;0.10;0.10;;;11.60;85.80;;;;;;4120240;27;20063;-88
2020/12/10 15:17:36;;;;;;;0.00;0.00;;;11.50;85.90;;;;;;4071653;28;20052;-88
2020/12/10 15:20:29;;;;;;;0.10;0.00;;;11.50;86.10;;;;;;4101029;27;20048;-90
2020/12/10 15:23:20;;;;;;;1.27;0.43;;;11.40;86.30;;;;;;4077523;35;20044;-88
2020/12/10 15:25:52;;;;;;;2.25;0.05;;;11.40;86.50;;;;;;4176950;27;20052;-88
2020/12/10 15:28:20;;;;;;;0.55;0.20;;;11.30;86.60;;;;;;4220539;27;20103;-90
2020/12/10 16:36:37;;;;;;;0.00;0.00;;;10.80;87.90;;;;;;4107042;27;20310;-88
2020/12/10 16:39:04;;;;;;;0.63;0.15;;;10.70;87.90;;;;;;4127937;34;20066;-89
2020/12/10 16:41:57;;;;;;;0.20;0.00;;;10.80;88.00;;;;;;4119086;34;20114;-89
2020/12/10 16:44:24;;;;;;;0.68;0.22;;;10.80;88.10;;;;;;4126671;27;20097;-87
2020/12/10 16:46:51;;;;;;;1.20;0.10;;;10.70;88.10;;;;;;4151936;27;20081;-87
2020/12/10 16:49:21;;;;;;;0.20;0.10;;;10.70;88.20;;;;;;4134294;34;20064;-86
2020/12/10 16:51:48;;;;;;;0.30;0.00;;;10.70;88.20;;;;;;4135596;27;20042;-88
2020/12/10 16:54:17;;;;;;;1.55;0.25;;;10.70;88.30;;;;;;4145354;27;20082;-89
2020/12/10 16:56:50;;;;;;;0.55;0.45;;;10.70;88.30;;;;;;4163551;27;20043;-88
2020/12/10 16:59:17;;;;;;;0.17;0.13;;;10.70;88.30;;;;;;4124649;27;20086;-89
2020/12/10 17:01:45;;;;;;;0.85;0.40;;;10.60;88.30;;;;;;4147276;27;20043;-88
2020/12/10 17:04:12;;;;;;;2.35;0.47;;;10.60;88.40;;;;;;4123166;34;20046;-89
2020/12/10 17:06:42;;;;;;;1.45;0.40;;;10.60;88.40;;;;;;4147248;27;20061;-87
2020/12/10 17:09:09;;;;;;;3.92;0.30;;;10.60;88.40;;;;;;4131815;27;20050;-88
2020/12/10 17:11:36;;;;;;;1.60;0.55;;;10.60;88.40;;;;;;4136710;27;20043;-89
2020/12/10 17:14:03;;;;;;;0.20;0.10;;;10.60;88.50;;;;;;4131015;34;20073;-88
2020/12/10 17:16:38;;;;;;;0.68;0.30;;;10.60;88.40;;;;;;4135371;34;20070;-90
2020/12/10 17:21:54;;;;;;;2.75;0.13;;;10.60;88.50;;;;;;4154168;34;20046;-88
2020/12/10 17:24:35;;;;;;;1.38;0.30;;;10.60;89.30;;;;;;4168504;27;20113;-88
2020/12/10 17:27:16;;;;;;;3.30;0.52;;;10.60;88.50;;;;;;4134156;34;20043;-89
2020/12/10 17:30:10;;;;;;;0.60;0.10;;;10.60;88.60;;;;;;4146204;34;20403;-88
2020/12/10 17:32:36;;;;;;;0.17;0.10;;;10.50;88.70;;;;;;4136143;34;20082;-88
2020/12/10 17:35:18;;;;;;;0.08;0.00;;;10.40;88.70;;;;;;4133284;34;20081;-89
2020/12/10 17:37:48;;;;;;;3.13;0.47;;;10.40;88.80;;;;;;4171710;27;20062;-89
2020/12/10 17:40:19;;;;;;;3.38;0.35;;;10.40;88.90;;;;;;4144907;34;20058;-88
2020/12/10 17:42:45;;;;;;;1.83;0.85;;;10.40;88.90;;;;;;4174410;27;20085;-89
2020/12/10 20:19:36;;;;;;;;;;;;;;;;;;;;;
2020/12/10 21:31:32;;;;;;;0.43;0.10;;;9.50;88.90;;;;;;4162713;27;20519;-89
2020/12/10 21:40:48;;;;;;;;;;;;;;;;;;;;;
2020/12/10 21:43:25;;;;;;;;;;;;;;;;;;;;;
2020/12/10 21:49:38;;;;;;;;;;;9.50;89.00;;;;;;4101156;34;20095;-89
2020/12/10 21:52:40;;;;;;;0.98;0.00;;;9.50;89.00;;;;;;4138897;34;19974;-88
2020/12/10 21:55:25;;;;;;;;;;;9.50;88.90;;;;;;4126902;34;20732;-90
2020/12/10 21:58:02;;;;;;;7.03;0.28;;;9.50;88.80;;;;;;4115051;34;19998;-88
2020/12/10 22:00:28;;;;;;;0.00;0.00;;;9.50;88.80;;;;;;4136278;27;20118;-88
2020/12/10 22:02:55;;;;;;;0.00;0.00;;;9.40;88.70;;;;;;4106505;34;20044;-89
2020/12/10 22:05:22;;;;;;;0.15;0.00;;;9.50;88.80;;;;;;4118133;34;20599;-89
2020/12/10 22:07:48;;;;;;;0.15;0.05;;;9.50;88.80;;;;;;4135515;27;20482;-89
2020/12/10 22:10:15;;;;;;;2.92;0.28;;;9.50;88.80;;;;;;4116939;27;20055;-89
2020/12/10 22:12:45;;;;;;;0.17;0.05;;;9.50;88.80;;;;;;4114656;34;20070;-89
2020/12/10 22:15:11;;;;;;;0.55;0.20;;;9.50;88.90;;;;;;4116329;34;20074;-88
2020/12/10 22:17:41;;;;;;;0.00;0.00;;;9.50;88.90;;;;;;4105561;27;20423;-87
2020/12/10 22:20:07;;;;;;;0.43;0.38;;;9.50;88.90;;;;;;4119697;27;20342;-89
2020/12/10 22:22:33;;;;;;;0.00;0.00;;;9.50;88.90;;;;;;4118017;34;20071;-90
2020/12/10 22:25:00;;;;;;;2.65;0.38;;;9.50;88.90;;;;;;4128295;34;20407;-91
2020/12/10 22:27:28;;;;;;;0.25;0.00;;;9.50;88.80;;;;;;4131256;34;20083;-89
2020/12/10 22:29:54;;;;;;;0.28;0.28;;;9.50;88.80;;;;;;4131287;27;20387;-91
2020/12/10 22:32:21;;;;;;;0.00;0.00;;;9.60;88.80;;;;;;4170205;27;20028;-88
2020/12/10 22:34:47;;;;;;;0.00;0.00;;;9.50;88.90;;;;;;4139097;27;20087;-89
2020/12/10 22:37:14;;;;;;;0.10;0.00;;;9.60;89.50;;;;;;4116698;34;20090;-90
2020/12/10 22:39:40;;;;;;;0.75;0.25;;;9.60;88.80;;;;;;4116665;34;20039;-88
2020/12/10 22:42:06;;;;;;;3.35;0.10;;;9.60;88.70;;;;;;4117894;34;20572;-88
2020/12/10 22:44:34;;;;;;;0.00;0.00;;;9.60;88.70;;;;;;4115846;34;20074;-90
2020/12/10 22:47:01;;;;;;;0.00;0.00;;;9.60;88.60;;;;;;4137832;27;20035;-89
2020/12/10 22:49:28;;;;;;;0.00;0.00;;;9.60;88.70;;;;;;4130862;27;20073;-89
2020/12/10 22:52:01;;;;;;;9.85;0.65;;;9.60;88.70;;;;;;4127666;34;20082;-89
2020/12/10 22:54:27;;;;;;;0.30;0.15;;;9.60;88.70;;;;;;4156889;27;20094;-89
2020/12/10 22:56:53;;;;;;;0.10;0.00;;;9.60;88.60;;;;;;4131375;27;20085;-89
2020/12/10 22:59:38;;;;;;;0.47;0.22;;;9.60;88.60;;;;;;4128760;34;20050;-89
2020/12/10 23:02:05;;;;;;;0.22;0.00;;;9.60;88.60;;;;;;4137059;27;20227;-90
2020/12/10 23:04:36;;;;;;;0.10;0.00;;;9.60;88.60;;;;;;4144752;34;20054;-88
2020/12/10 23:07:03;;;;;;;0.20;0.10;;;9.60;88.60;;;;;;4133657;34;20074;-88
2020/12/10 23:09:30;;;;;;;0.00;0.00;;;9.60;88.60;;;;;;4131274;27;20066;-89
2020/12/10 23:11:57;;;;;;;0.10;0.00;;;9.70;88.70;;;;;;4130993;27;20102;-89
2020/12/10 23:14:24;;;;;;;0.57;0.43;;;9.60;88.60;;;;;;4175094;27;20365;-90
2020/12/10 23:16:50;;;;;;;0.00;0.00;;;9.60;88.60;;;;;;4162886;27;20094;-89
2020/12/10 23:19:16;;;;;;;0.00;0.00;;;9.60;88.60;;;;;;4146586;27;20059;-89
2020/12/10 23:21:43;;;;;;;0.57;0.13;;;9.60;88.60;;;;;;4143124;34;20387;-90
2020/12/10 23:24:09;;;;;;;0.52;0.05;;;9.60;88.60;;;;;;4198789;27;20525;-90
2020/12/10 23:26:36;;;;;;;0.00;0.00;;;9.60;88.60;;;;;;4128947;34;20360;-89
2020/12/10 23:29:05;;;;;;;4.18;0.63;;;9.60;88.60;;;;;;4139449;27;20079;-89
2020/12/10 23:31:33;;;;;;;0.13;0.08;;;9.70;88.70;;;;;;4172001;27;20066;-89
2020/12/10 23:34:00;;;;;;;0.43;0.20;;;9.70;89.40;;;;;;4149514;27;20039;-89
2020/12/10 23:36:26;;;;;;;0.00;0.00;;;9.70;88.60;;;;;;4128585;34;20062;-90
2020/12/10 23:38:52;;;;;;;0.85;0.05;;;9.70;88.50;;;;;;4128245;34;20051;-88
2020/12/10 23:41:19;;;;;;;0.60;0.22;;;9.70;88.50;;;;;;4127959;34;20071;-89
2020/12/10 23:43:45;;;;;;;0.40;0.10;;;9.70;88.50;;;;;;4130954;34;20054;-89
2020/12/10 23:46:14;;;;;;;0.00;0.00;;;9.70;88.50;;;;;;4132154;34;20063;-88
2020/12/10 23:48:41;;;;;;;1.40;0.65;;;9.70;88.40;;;;;;4130646;34;20054;-90
2020/12/10 23:51:26;;;;;;;0.15;0.00;;;9.70;88.50;;;;;;4126890;27;20091;-89
2020/12/10 23:53:53;;;;;;;0.15;0.00;;;9.70;88.50;;;;;;4122548;27;20086;-87
2020/12/10 23:56:19;;;;;;;0.00;0.00;;;9.70;88.50;;;;;;4123929;27;20090;-89
2020/12/10 23:58:45;;;;;;;0.00;0.00;;;9.70;88.50;;;;;;4128722;34;20075;-89
